createdAt,value
2023-03-02T00:00:16.540Z,7.90
2023-03-02T00:03:07.821Z,6.88
2023-03-02T00:05:41.335Z,5.57
2023-03-02T00:08:11.874Z,7.40
2023-03-02T00:10:41.653Z,6.95
2023-03-02T00:13:11.794Z,7.15
2023-03-02T00:15:42.371Z,8.02
2023-03-02T00:18:11.687Z,7.85
2023-03-02T00:20:42.872Z,6.80
2023-03-02T00:23:12.129Z,7.88
2023-03-02T00:25:42.016Z,8.10
2023-03-02T00:28:11.438Z,7.90
2023-03-02T00:30:41.712Z,8.43
2023-03-02T00:33:11.087Z,8.48
2023-03-02T00:35:42.906Z,7.70
2023-03-02T00:38:12.671Z,6.90
2023-03-02T00:40:47.151Z,7.37
2023-03-02T00:43:16.713Z,8.45
2023-03-02T00:45:46.705Z,8.20
2023-03-02T00:48:16.129Z,8.23
2023-03-02T00:50:47.562Z,9.10
2023-03-02T00:53:16.813Z,9.18
2023-03-02T00:55:55.973Z,8.32
2023-03-02T00:58:25.389Z,6.45
2023-03-02T01:00:56.071Z,8.45
2023-03-02T01:03:25.529Z,7.43
2023-03-02T01:05:56.669Z,7.10
2023-03-02T01:08:26.826Z,7.75
2023-03-02T01:10:56.466Z,6.57
2023-03-02T01:13:25.921Z,7.78
2023-03-02T01:16:02.510Z,6.75
2023-03-02T01:18:33.283Z,6.63
2023-03-02T01:21:05.988Z,5.50
2023-03-02T01:23:35.484Z,6.10
2023-03-02T01:26:05.844Z,5.55
2023-03-02T01:28:35.791Z,5.43
2023-03-02T01:31:05.622Z,5.13
2023-03-02T01:33:35.210Z,5.00
2023-03-02T01:36:07.089Z,5.38
2023-03-02T01:38:36.419Z,4.72
2023-03-02T01:41:06.788Z,5.55
2023-03-02T01:43:36.185Z,5.65
2023-03-02T01:46:08.609Z,5.78
2023-03-02T01:48:44.345Z,5.72
2023-03-02T01:51:18.054Z,6.70
2023-03-02T01:53:49.957Z,6.65
2023-03-02T01:56:23.127Z,6.40
2023-03-02T01:58:55.875Z,6.70
2023-03-02T02:01:26.185Z,6.18
2023-03-02T02:03:55.494Z,6.22
2023-03-02T02:06:30.882Z,7.55
2023-03-02T02:09:01.702Z,5.65
2023-03-02T02:11:32.451Z,7.18
2023-03-02T02:14:03.622Z,6.22
2023-03-02T02:16:35.812Z,6.65
2023-03-02T02:19:08.925Z,6.07
2023-03-02T02:21:40.452Z,6.22
2023-03-02T02:24:13.669Z,6.75
2023-03-02T02:26:49.037Z,6.35
2023-03-02T02:29:23.209Z,6.00
2023-03-02T02:31:57.557Z,9.98
2023-03-02T02:34:32.393Z,6.53
2023-03-02T02:37:08.736Z,6.57
2023-03-02T02:39:42.653Z,6.68
2023-03-02T02:42:18.226Z,7.55
2023-03-02T02:44:48.827Z,6.50
2023-03-02T02:49:51.794Z,7.80
2023-03-02T02:52:24.360Z,6.63
2023-03-02T02:54:56.838Z,6.60
2023-03-02T02:57:31.550Z,7.68
2023-03-02T03:00:03.068Z,7.60
2023-03-02T03:02:39.468Z,7.75
2023-03-02T03:05:15.431Z,7.60
2023-03-02T03:07:45.462Z,8.48
2023-03-02T03:10:20.382Z,8.77
2023-03-02T03:12:52.449Z,7.85
2023-03-02T03:15:22.088Z,7.50
2023-03-02T03:17:57.087Z,6.47
2023-03-02T03:20:28.387Z,7.43
2023-03-02T03:23:00.022Z,6.22
2023-03-02T03:25:29.679Z,7.07
2023-03-02T03:28:00.794Z,6.82
2023-03-02T03:30:30.619Z,6.45
2023-03-02T03:33:00.375Z,6.50
2023-03-02T03:35:29.698Z,5.63
2023-03-02T03:37:59.503Z,6.68
2023-03-02T03:40:29.327Z,6.07
2023-03-02T03:43:00.524Z,5.22
2023-03-02T03:45:30.485Z,6.32
2023-03-02T03:48:00.237Z,5.88
2023-03-02T03:50:29.498Z,6.32
2023-03-02T03:52:59.141Z,6.10
2023-03-02T03:55:29.370Z,4.80
2023-03-02T03:58:00.442Z,5.15
2023-03-02T04:00:29.938Z,5.13
2023-03-02T04:02:59.658Z,5.20
2023-03-02T04:05:31.496Z,4.68
2023-03-02T04:08:02.664Z,4.95
2023-03-02T04:10:32.138Z,6.07
2023-03-02T04:13:03.572Z,6.07
2023-03-02T04:18:02.572Z,4.85
2023-03-02T04:20:32.008Z,4.85
2023-03-02T04:23:02.059Z,4.90
2023-03-02T04:25:32.244Z,4.07
2023-03-02T04:28:03.498Z,5.47
2023-03-02T04:30:33.442Z,4.95
2023-03-02T04:33:03.231Z,5.32
2023-03-02T04:35:32.682Z,4.85
2023-03-02T04:38:02.433Z,5.32
2023-03-02T04:40:31.965Z,5.53
2023-03-02T04:43:03.242Z,6.20
2023-03-02T04:45:32.760Z,4.72
2023-03-02T04:48:02.727Z,5.30
2023-03-02T04:50:32.293Z,5.40
2023-03-02T04:53:01.978Z,5.22
2023-03-02T04:55:31.676Z,5.38
2023-03-02T04:58:03.275Z,5.03
2023-03-02T05:00:34.475Z,4.18
2023-03-02T05:03:05.500Z,6.45
2023-03-02T05:05:35.843Z,5.15
2023-03-02T05:08:05.931Z,4.40
2023-03-02T05:10:35.900Z,4.28
2023-03-02T05:13:07.564Z,4.28
2023-03-02T05:15:38.229Z,4.68
2023-03-02T05:20:37.988Z,4.13
2023-03-02T05:23:17.401Z,4.72
2023-03-02T05:25:47.372Z,5.60
2023-03-02T05:28:18.912Z,4.75
2023-03-02T05:33:18.388Z,4.78
2023-03-02T05:35:48.711Z,4.67
2023-03-02T05:38:18.576Z,6.35
2023-03-02T05:40:48.574Z,4.57
2023-03-02T05:43:21.975Z,4.55
2023-03-02T05:45:51.670Z,6.22
2023-03-02T05:48:21.422Z,4.50
2023-03-02T05:50:50.807Z,4.65
2023-03-02T05:53:21.005Z,5.50
2023-03-02T05:55:50.661Z,3.70
2023-03-02T05:58:22.243Z,5.20
2023-03-02T06:00:52.106Z,4.82
2023-03-02T06:03:22.103Z,6.78
2023-03-02T06:05:52.625Z,5.95
2023-03-02T06:08:23.169Z,6.80
2023-03-02T06:10:56.669Z,6.18
2023-03-02T06:13:28.107Z,6.00
2023-03-02T06:15:57.700Z,6.72
2023-03-02T06:18:27.704Z,6.05
2023-03-02T06:20:57.410Z,5.32
2023-03-02T06:23:27.621Z,5.67
2023-03-02T06:25:58.388Z,5.55
2023-03-02T06:28:29.582Z,5.40
2023-03-02T06:31:00.771Z,5.82
2023-03-02T06:33:30.852Z,4.97
2023-03-02T06:36:00.502Z,4.55
2023-03-02T06:38:30.237Z,5.93
2023-03-02T06:41:00.503Z,5.70
2023-03-02T06:43:31.767Z,5.55
2023-03-02T06:46:02.315Z,4.80
2023-03-02T06:51:01.529Z,5.18
2023-03-02T06:53:31.556Z,4.85
2023-03-02T06:56:01.165Z,5.75
2023-03-02T06:58:32.238Z,5.75
2023-03-02T07:01:01.896Z,5.93
2023-03-02T07:03:32.152Z,6.18
2023-03-02T07:06:01.496Z,5.65
2023-03-02T07:08:31.193Z,5.82
2023-03-02T07:11:00.487Z,4.80
2023-03-02T07:13:31.915Z,4.63
2023-03-02T07:16:01.372Z,5.15
2023-03-02T07:18:31.579Z,4.55
2023-03-02T07:21:01.087Z,5.88
2023-03-02T07:23:30.759Z,3.72
2023-03-02T07:26:00.219Z,4.82
2023-03-02T07:28:30.012Z,4.32
2023-03-02T07:31:00.939Z,4.47
2023-03-02T07:33:30.792Z,3.97
2023-03-02T07:36:00.115Z,4.55
2023-03-02T07:38:30.063Z,4.70
2023-03-02T07:41:00.112Z,4.32
2023-03-02T07:43:31.117Z,5.13
2023-03-02T07:46:02.803Z,5.18
2023-03-02T07:48:32.895Z,6.15
2023-03-02T07:51:03.331Z,4.53
2023-03-02T07:53:33.309Z,5.18
2023-03-02T07:56:07.002Z,5.85
2023-03-02T07:58:36.673Z,6.00
2023-03-02T08:01:08.034Z,5.63
2023-03-02T08:03:37.791Z,7.50
2023-03-02T08:06:08.536Z,5.90
2023-03-02T08:08:39.556Z,5.13
2023-03-02T08:11:10.014Z,5.93
2023-03-02T08:13:40.269Z,5.63
2023-03-02T08:16:13.685Z,6.32
2023-03-02T08:18:44.319Z,6.35
2023-03-02T08:21:15.311Z,4.65
2023-03-02T08:23:45.234Z,5.20
2023-03-02T08:26:17.419Z,4.47
2023-03-02T08:28:48.112Z,5.55
2023-03-02T08:31:19.076Z,5.47
2023-03-02T08:33:48.936Z,4.53
2023-03-02T08:36:20.309Z,4.43
2023-03-02T08:38:51.347Z,5.10
2023-03-02T08:41:22.241Z,3.85
2023-03-02T08:43:54.426Z,5.15
2023-03-02T08:46:25.390Z,5.05
2023-03-02T08:48:55.262Z,5.25
2023-03-02T08:51:26.248Z,5.30
2023-03-02T08:53:57.244Z,4.22
2023-03-02T08:56:28.778Z,3.60
2023-03-02T08:59:01.375Z,3.28
2023-03-02T09:01:34.945Z,4.43
2023-03-02T09:04:06.171Z,3.22
2023-03-02T09:06:37.765Z,3.70
2023-03-02T09:09:08.863Z,3.28
2023-03-02T09:11:38.967Z,2.85
2023-03-02T09:14:08.817Z,3.17
2023-03-02T09:16:39.973Z,3.45
2023-03-02T09:19:10.172Z,3.75
2023-03-02T09:21:39.507Z,3.25
2023-03-02T09:24:09.946Z,5.50
2023-03-02T09:26:39.781Z,3.43
2023-03-02T09:29:10.054Z,3.33
2023-03-02T09:31:40.884Z,2.95
2023-03-02T09:34:11.160Z,2.70
2023-03-02T09:36:40.518Z,3.28
2023-03-02T09:39:12.669Z,3.83
2023-03-02T09:42:18.007Z,3.78
2023-03-02T09:45:16.055Z,3.50
2023-03-02T09:47:56.991Z,3.80
2023-03-02T09:50:32.675Z,4.10
2023-03-02T09:53:37.331Z,3.88
2023-03-02T09:56:17.133Z,2.90
2023-03-02T09:58:54.507Z,2.97
2023-03-02T10:01:35.916Z,3.22
2023-03-02T10:04:24.669Z,4.50
2023-03-02T10:07:12.216Z,2.60
2023-03-02T10:09:42.456Z,3.03
2023-03-02T10:12:36.549Z,3.28
2023-03-02T10:15:11.871Z,2.80
2023-03-02T10:17:53.159Z,3.65
2023-03-02T10:20:34.617Z,3.70
2023-03-02T10:23:18.030Z,4.15
2023-03-02T10:25:53.831Z,4.43
2023-03-02T10:28:25.803Z,4.93
2023-03-02T10:31:05.098Z,4.30
2023-03-02T10:33:38.456Z,4.00
2023-03-02T10:36:23.101Z,3.40
2023-03-02T10:38:53.819Z,4.15
2023-03-02T10:41:27.929Z,3.65
2023-03-02T10:44:02.255Z,3.42
2023-03-02T10:46:43.193Z,3.50
2023-03-02T10:49:39.172Z,3.90
2023-03-02T10:52:20.048Z,4.07
2023-03-02T10:54:50.395Z,4.13
2023-03-02T10:57:35.960Z,4.00
2023-03-02T11:00:18.130Z,4.47
2023-03-02T11:02:54.924Z,6.50
2023-03-02T11:05:30.264Z,5.90
2023-03-02T11:08:02.126Z,5.32
2023-03-02T11:10:34.587Z,5.25
2023-03-02T11:13:05.290Z,4.07
2023-03-02T11:15:45.238Z,4.28
2023-03-02T11:18:25.982Z,3.50
2023-03-02T11:21:01.194Z,3.40
2023-03-02T11:23:42.005Z,3.88
2023-03-02T11:26:21.802Z,4.07
2023-03-02T11:29:00.845Z,4.03
2023-03-02T11:31:42.737Z,5.50
2023-03-02T11:34:30.692Z,4.10
2023-03-02T11:37:11.645Z,4.30
2023-03-02T11:39:58.396Z,4.43
2023-03-02T11:42:32.026Z,3.70
2023-03-02T11:45:08.139Z,3.90
2023-03-02T11:47:39.332Z,3.95
2023-03-02T11:50:14.039Z,4.05
2023-03-02T11:52:49.639Z,3.53
2023-03-02T11:55:23.951Z,4.50
2023-03-02T11:57:56.547Z,3.80
2023-03-02T12:00:33.085Z,3.83
2023-03-02T12:03:05.595Z,3.45
2023-03-02T12:05:37.623Z,2.95
2023-03-02T12:08:09.764Z,3.20
2023-03-02T12:10:43.063Z,2.60
2023-03-02T12:13:20.148Z,3.58
2023-03-02T12:15:51.478Z,4.07
2023-03-02T12:18:48.250Z,3.15
2023-03-02T12:21:19.481Z,4.07
2023-03-02T12:24:04.179Z,4.15
2023-03-02T12:26:38.611Z,3.90
2023-03-02T12:29:25.750Z,5.43
2023-03-02T12:31:57.799Z,5.60
2023-03-02T12:34:35.384Z,6.03
2023-03-02T12:37:16.098Z,5.60
2023-03-02T12:40:15.753Z,5.45
2023-03-02T12:42:59.606Z,4.97
2023-03-02T12:45:49.323Z,10.10
2023-03-02T12:48:27.060Z,5.97
2023-03-02T12:51:01.488Z,5.70
2023-03-02T12:53:32.557Z,6.70
2023-03-02T12:56:02.260Z,5.78
2023-03-02T12:58:34.348Z,5.00
2023-03-02T13:01:06.129Z,6.03
2023-03-02T13:03:35.516Z,5.50
2023-03-02T13:06:12.559Z,6.65
2023-03-02T13:08:45.043Z,5.40
2023-03-02T13:11:14.969Z,5.32
2023-03-02T13:13:48.470Z,5.05
2023-03-02T13:16:23.558Z,5.85
2023-03-02T13:18:57.269Z,5.30
2023-03-02T13:21:34.019Z,4.93
2023-03-02T13:24:04.267Z,4.45
2023-03-02T13:26:36.360Z,5.20
2023-03-02T13:29:19.508Z,5.88
2023-03-02T13:31:49.782Z,5.68
2023-03-02T13:34:24.511Z,6.00
2023-03-02T13:36:54.996Z,6.07
2023-03-02T13:39:27.804Z,5.77
2023-03-02T13:41:58.986Z,6.75
2023-03-02T13:44:31.553Z,4.97
2023-03-02T13:47:02.369Z,5.60
2023-03-02T13:49:34.121Z,6.50
2023-03-02T13:52:08.211Z,5.60
2023-03-02T13:54:39.234Z,6.15
2023-03-02T13:57:09.187Z,6.13
2023-03-02T13:59:40.084Z,6.07
2023-03-02T14:02:20.140Z,5.63
2023-03-02T14:04:49.739Z,6.80
2023-03-02T14:07:19.446Z,5.20
2023-03-02T14:09:49.141Z,5.05
2023-03-02T14:12:25.704Z,4.80
2023-03-02T14:14:59.059Z,5.35
2023-03-02T14:17:29.300Z,5.10
2023-03-02T14:19:58.594Z,3.95
2023-03-02T14:22:30.522Z,4.00
2023-03-02T14:25:00.002Z,5.03
2023-03-02T14:27:32.144Z,4.37
2023-03-02T14:30:02.975Z,5.85
2023-03-02T14:32:32.704Z,5.07
2023-03-02T14:35:02.201Z,4.75
2023-03-02T14:37:31.961Z,5.57
2023-03-02T14:40:01.767Z,5.40
2023-03-02T14:42:31.670Z,6.28
2023-03-02T14:45:02.661Z,5.18
2023-03-02T14:47:32.266Z,4.55
2023-03-02T14:50:01.683Z,4.38
2023-03-02T14:52:36.646Z,5.00
2023-03-02T14:55:14.017Z,4.35
2023-03-02T14:57:43.736Z,5.28
2023-03-02T15:00:17.037Z,5.57
2023-03-02T15:02:46.842Z,5.40
2023-03-02T15:05:16.527Z,5.55
2023-03-02T15:07:47.058Z,6.37
2023-03-02T15:10:19.149Z,6.90
2023-03-02T15:12:48.906Z,5.93
2023-03-02T15:15:20.562Z,7.80
2023-03-02T15:17:50.312Z,7.75
2023-03-02T15:20:20.600Z,7.47
2023-03-02T15:22:51.113Z,7.18
2023-03-02T15:25:20.546Z,7.85
2023-03-02T15:27:50.550Z,8.50
2023-03-02T15:30:22.093Z,7.82
2023-03-02T15:32:51.715Z,8.13
2023-03-02T15:35:21.677Z,7.80
2023-03-02T15:37:51.441Z,8.02
2023-03-02T15:40:21.058Z,8.75
2023-03-02T15:42:50.860Z,9.20
2023-03-02T15:45:21.569Z,8.07
2023-03-02T15:47:51.580Z,9.18
2023-03-02T15:50:20.863Z,10.50
2023-03-02T15:52:51.412Z,9.57
2023-03-02T15:55:20.685Z,8.87
2023-03-02T15:57:50.492Z,8.80
2023-03-02T16:00:22.797Z,9.13
2023-03-02T16:02:52.801Z,9.77
2023-03-02T16:05:22.289Z,9.15
2023-03-02T16:07:52.011Z,10.48
2023-03-02T16:10:21.436Z,9.45
2023-03-02T16:12:51.225Z,10.82
2023-03-02T16:15:21.984Z,10.23
2023-03-02T16:17:51.680Z,11.35
2023-03-02T16:20:21.474Z,12.52
2023-03-02T16:22:51.074Z,13.07
2023-03-02T16:25:20.469Z,14.13
2023-03-02T16:27:50.258Z,13.18
2023-03-02T16:30:23.449Z,12.52
2023-03-02T16:32:53.357Z,13.00
2023-03-02T16:35:22.851Z,14.50
2023-03-02T16:37:52.608Z,13.18
2023-03-02T16:40:22.422Z,14.48
2023-03-02T16:42:53.050Z,16.27
2023-03-02T16:45:24.461Z,15.45
2023-03-02T16:47:54.224Z,15.82
2023-03-02T16:50:24.161Z,15.80
2023-03-02T16:52:53.897Z,19.00
2023-03-02T16:55:23.319Z,20.60
2023-03-02T16:57:52.923Z,20.23
2023-03-02T17:00:24.924Z,20.15
2023-03-02T17:02:55.159Z,19.98
2023-03-02T17:05:24.919Z,20.25
2023-03-02T17:07:55.214Z,22.67
2023-03-02T17:10:24.907Z,22.85
2023-03-02T17:12:54.925Z,21.38
2023-03-02T17:15:25.682Z,21.58
2023-03-02T17:17:55.501Z,21.15
2023-03-02T17:20:24.888Z,21.27
2023-03-02T17:22:55.261Z,19.77
2023-03-02T17:25:24.897Z,19.95
2023-03-02T17:27:54.655Z,19.42
2023-03-02T17:30:25.506Z,19.63
2023-03-02T17:32:55.166Z,21.77
2023-03-02T17:35:24.463Z,22.73
2023-03-02T17:37:54.181Z,23.92
2023-03-02T17:40:23.959Z,22.08
2023-03-02T17:42:56.132Z,23.17
2023-03-02T17:45:29.575Z,24.35
2023-03-02T17:48:01.144Z,21.08
2023-03-02T17:50:32.029Z,20.33
2023-03-02T17:53:02.396Z,19.85
2023-03-02T17:55:32.043Z,22.02
2023-03-02T17:58:01.740Z,19.52
2023-03-02T18:00:33.824Z,21.33
2023-03-02T18:03:03.513Z,20.98
2023-03-02T18:05:32.923Z,22.15
2023-03-02T18:08:02.705Z,21.60
2023-03-02T18:10:32.112Z,19.67
2023-03-02T18:13:01.931Z,20.50
2023-03-02T18:15:32.880Z,21.58
2023-03-02T18:18:02.829Z,22.25
2023-03-02T18:20:32.518Z,21.88
2023-03-02T18:23:02.233Z,24.90
2023-03-02T18:25:31.684Z,23.90
2023-03-02T18:28:01.352Z,21.27
2023-03-02T18:30:32.314Z,23.02
2023-03-02T18:33:02.302Z,21.45
2023-03-02T18:35:31.659Z,19.88
2023-03-02T18:38:01.520Z,23.38
2023-03-02T18:40:30.922Z,22.70
2023-03-02T18:43:00.786Z,20.13
2023-03-02T18:45:33.548Z,21.98
2023-03-02T18:48:03.685Z,22.90
2023-03-02T18:50:32.947Z,19.40
2023-03-02T18:53:02.980Z,20.52
2023-03-02T18:55:32.436Z,23.08
2023-03-02T18:58:02.273Z,26.48
2023-03-02T19:00:33.705Z,23.17
2023-03-02T19:03:03.437Z,25.75
2023-03-02T19:05:32.864Z,26.83
2023-03-02T19:08:02.991Z,21.55
2023-03-02T19:10:32.660Z,23.10
2023-03-02T19:13:02.602Z,19.25
2023-03-02T19:15:35.102Z,18.70
2023-03-02T19:18:05.226Z,20.98
2023-03-02T19:20:34.932Z,19.95
2023-03-02T19:23:05.186Z,20.65
2023-03-02T19:25:34.560Z,19.90
2023-03-02T19:28:04.751Z,19.75
2023-03-02T19:30:37.035Z,18.23
2023-03-02T19:33:07.557Z,18.63
2023-03-02T19:35:38.094Z,17.83
2023-03-02T19:40:37.972Z,16.85
2023-03-02T19:43:07.898Z,16.80
2023-03-02T19:45:38.788Z,18.48
2023-03-02T19:48:13.864Z,17.85
2023-03-02T19:50:45.707Z,19.70
2023-03-02T19:53:16.187Z,18.48
2023-03-02T19:55:45.685Z,20.93
2023-03-02T19:58:19.346Z,20.08
2023-03-02T20:00:50.729Z,20.92
2023-03-02T20:03:20.664Z,20.48
2023-03-02T20:05:49.922Z,20.48
2023-03-02T20:08:21.869Z,22.20
2023-03-02T20:10:51.754Z,20.45
2023-03-02T20:13:21.847Z,17.38
2023-03-02T20:15:53.287Z,18.75
2023-03-02T20:18:22.962Z,18.80
2023-03-02T20:20:52.405Z,17.98
2023-03-02T20:23:22.431Z,20.02
2023-03-02T20:25:51.800Z,21.45
2023-03-02T20:28:24.111Z,20.85
2023-03-02T20:30:57.543Z,19.58
2023-03-02T20:33:29.703Z,20.45
2023-03-02T20:36:01.184Z,22.52
2023-03-02T20:38:35.427Z,22.08
2023-03-02T20:41:05.526Z,21.17
2023-03-02T20:43:35.344Z,20.33
2023-03-02T20:46:07.588Z,20.50
2023-03-02T20:48:37.940Z,19.58
2023-03-02T20:51:07.824Z,18.75
2023-03-02T20:53:37.472Z,18.13
2023-03-02T20:56:07.440Z,19.90
2023-03-02T20:58:41.361Z,20.30
2023-03-02T21:01:14.203Z,20.13
2023-03-02T21:03:45.124Z,19.38
2023-03-02T21:06:16.145Z,20.33
2023-03-02T21:08:46.707Z,19.35
2023-03-02T21:11:18.494Z,17.83
2023-03-02T21:13:49.820Z,18.63
2023-03-02T21:16:22.626Z,20.05
2023-03-02T21:18:52.425Z,18.95
2023-03-02T21:21:32.479Z,16.83
2023-03-02T21:24:09.722Z,19.52
2023-03-02T21:26:39.106Z,21.10
2023-03-02T21:29:09.659Z,17.77
2023-03-02T21:31:41.247Z,17.57
2023-03-02T21:34:11.090Z,19.33
2023-03-02T21:36:40.771Z,20.40
2023-03-02T21:39:12.045Z,20.52
2023-03-02T21:41:41.920Z,21.67
2023-03-02T21:44:11.879Z,20.10
2023-03-02T21:46:42.780Z,20.55
2023-03-02T21:49:14.042Z,19.55
2023-03-02T21:51:44.027Z,20.02
2023-03-02T21:54:13.617Z,22.27
2023-03-02T21:56:43.397Z,22.42
2023-03-02T21:59:13.830Z,21.87
2023-03-02T22:01:44.911Z,21.75
2023-03-02T22:04:14.590Z,22.90
2023-03-02T22:06:43.986Z,20.45
2023-03-02T22:09:13.754Z,20.60
2023-03-02T22:11:43.096Z,18.35
2023-03-02T22:14:14.439Z,19.33
2023-03-02T22:16:48.373Z,17.88
2023-03-02T22:19:29.230Z,20.35
2023-03-02T22:22:00.342Z,19.88
2023-03-02T22:24:31.606Z,19.23
2023-03-02T22:27:04.039Z,21.50
2023-03-02T22:29:40.200Z,19.65
2023-03-02T22:32:19.390Z,17.92
2023-03-02T22:34:51.212Z,18.58
2023-03-02T22:37:22.465Z,17.02
2023-03-02T22:39:56.031Z,16.75
2023-03-02T22:42:27.592Z,20.10
2023-03-02T22:45:03.766Z,18.05
2023-03-02T22:47:34.547Z,18.45
2023-03-02T22:50:20.509Z,18.63
2023-03-02T22:52:50.142Z,19.48
2023-03-02T22:55:37.663Z,21.87
2023-03-02T22:58:46.082Z,18.17
2023-03-02T23:01:24.580Z,19.40
2023-03-02T23:03:59.195Z,20.75
2023-03-02T23:06:32.170Z,20.52
2023-03-02T23:09:06.306Z,22.33
2023-03-02T23:11:39.142Z,23.27
2023-03-02T23:14:18.361Z,23.92
2023-03-02T23:16:52.605Z,25.45
2023-03-02T23:19:23.909Z,24.08
2023-03-02T23:21:53.845Z,22.27
2023-03-02T23:24:23.306Z,25.08
2023-03-02T23:26:54.483Z,26.38
2023-03-02T23:29:23.882Z,25.00
2023-03-02T23:31:53.622Z,24.40
2023-03-02T23:34:24.888Z,23.30
2023-03-02T23:36:54.815Z,23.38
2023-03-02T23:39:24.374Z,22.08
2023-03-02T23:41:54.739Z,22.30
2023-03-02T23:44:24.756Z,20.83
2023-03-02T23:46:54.614Z,23.60
2023-03-02T23:49:25.360Z,21.00
2023-03-02T23:51:55.059Z,20.75
2023-03-02T23:54:24.487Z,21.33
2023-03-02T23:56:54.768Z,20.92
2023-03-02T23:59:24.697Z,20.58
